Pagrindinis puslapis
METAR-TAF:

METAR-TAF

Oro uostai :

Witham Field

Stuart, Florida, Jungtinės Amerikos Valstijos

platuma: 27-10-54N, ilguma: 080-13-16W, Aukštis: 6 m

Dabartinis oras

Ataskaita buvo paskelbta 1 valandą ir 11 minutes, ne 21:50 UTC
Vėjas 10 kt iš Rytų
Temperatūra 28°C
Drėgmė 40%
Slėgis 1019 hPa
Matomumas: 11.3 km
Išsisklaidę debesys ne aukštis 4400 ft

METAR: KSUA 082150Z 08010KT 7SM SCT044 28/13 A3008

Laikas: 19:01 (23:01 UTC)

Prognozė

Ataskaita buvo paskelbta 5 valandos ir 41 minutes, ne 17:20 UTC
Prognozė galioja nuo 08 metu 18 UTC su 09 metu 18 UTC
Vėjas 12 kt iš Rytų su gūsio iki 16 kt
Matomumas: 10 km
Giedras dangus
Nuo 09 metu 0200 UTC
Vėjas 7 kt iš Rytų
Matomumas: 10 km
Giedras dangus
Nuo 09 metu 1400 UTC
Vėjas 10 kt iš Rytų/Pietryčių
Matomumas: 10 km
Išsisklaidę debesys ne aukštis 4000 ft

TAF: KSUA 081720Z 0818/0918 08012G16KT P6SM SKC FM090200 09007KT P6SM SKC FM091400 12010KT P6SM SCT040 AMD NOT SKED

Orai ataskaitas ir orų prognozės (METAR, TAF).

turimą stotys yra geltonos ir raudonos taškus žemėlapyje.

Perkelti pele per norėdami pamatyti stoties vardą.

Tada spustelėkite, norėdami matyti oro stebėjimo ir prognozės.

Norėdami pakeisti žemėlapį: spustelėkite ant žalios mygtukų su juodo kryžiaus žemyn,; žalią mygtuką su brūkšneliu, jei norite nutolinti; arba žalių rodyklių gretimoms žemėlapius.


METAR-TAF: